Time;durP1;ratioP1;P1;durP2;ratioP2;P2;SDS_P1;SDS_P2;PMS_P1;PMS_P2;Temp;Humidity;BMP_temperature;BMP_pressure;BME280_temperature;BME280_humidity;BME280_pressure;Samples;Min_cycle;Max_cycle;Signal;HPM_P1;HPM_P2
2021/10/16 00:00:20;;;;;;;12.03;3.67;;;8.10;99.90;;;;;;5053196;28;20024;-82
2021/10/16 00:02:47;;;;;;;16.20;3.60;;;8.20;99.90;;;;;;5053141;28;20086;-82
2021/10/16 00:05:13;;;;;;;12.70;3.30;;;8.20;99.90;;;;;;5053860;28;20048;-83
2021/10/16 00:10:08;;;;;;;14.52;3.88;;;8.10;99.90;;;;;;5052777;28;20056;-83
2021/10/16 00:12:34;;;;;;;10.07;3.03;;;8.10;99.90;;;;;;5054122;28;20477;-83
2021/10/16 00:15:00;;;;;;;12.37;3.67;;;8.00;99.90;;;;;;5053744;28;20027;-83
2021/10/16 00:17:26;;;;;;;10.27;3.70;;;8.00;99.90;;;;;;5055452;28;20025;-83
2021/10/16 00:19:51;;;;;;;11.17;3.40;;;8.10;99.90;;;;;;5052910;28;20063;-83
2021/10/16 00:22:20;;;;;;;9.17;3.10;;;8.10;99.90;;;;;;5054832;28;20024;-83
2021/10/16 00:24:47;;;;;;;9.90;3.95;;;8.10;99.90;;;;;;5054961;28;20056;-84
2021/10/16 00:27:13;;;;;;;11.10;3.50;;;8.00;99.90;;;;;;5055061;28;20029;-84
2021/10/16 00:29:38;;;;;;;8.73;2.87;;;8.10;99.90;;;;;;5054358;28;20025;-84
2021/10/16 00:32:04;;;;;;;7.80;2.67;;;8.10;99.90;;;;;;5054601;28;20029;-84
2021/10/16 00:34:30;;;;;;;10.83;3.30;;;8.00;99.90;;;;;;5053614;28;20025;-83
2021/10/16 00:36:55;;;;;;;12.53;3.50;;;8.00;99.90;;;;;;5055258;28;20389;-84
2021/10/16 00:39:21;;;;;;;8.67;2.60;;;8.00;99.90;;;;;;5054122;28;20029;-84
2021/10/16 00:41:47;;;;;;;10.47;3.17;;;8.00;99.90;;;;;;5054667;28;20143;-83
2021/10/16 00:44:17;;;;;;;11.30;3.30;;;7.90;99.90;;;;;;5054580;28;20484;-83
2021/10/16 00:46:44;;;;;;;9.13;3.83;;;7.90;99.90;;;;;;5054553;28;20029;-83
2021/10/16 00:49:10;;;;;;;8.13;3.07;;;7.90;99.90;;;;;;5053775;28;20029;-83
2021/10/16 00:51:36;;;;;;;9.23;3.23;;;7.80;99.90;;;;;;5052816;28;20024;-83
2021/10/16 00:54:02;;;;;;;13.93;3.23;;;7.80;99.90;;;;;;5054245;28;20021;-83
2021/10/16 00:56:28;;;;;;;15.03;3.90;;;7.70;99.90;;;;;;5054814;28;20017;-84
2021/10/16 00:58:54;;;;;;;10.77;3.90;;;7.70;99.90;;;;;;5054098;28;20496;-83
2021/10/16 01:01:20;;;;;;;11.80;3.53;;;7.70;99.90;;;;;;5056057;28;20025;-83
2021/10/16 01:03:46;;;;;;;13.50;3.60;;;7.70;99.90;;;;;;5057281;28;20120;-83
2021/10/16 01:06:12;;;;;;;12.53;3.73;;;7.60;99.90;;;;;;5058621;28;20025;-84
2021/10/16 01:08:38;;;;;;;13.73;3.93;;;7.60;99.90;;;;;;5058707;28;20033;-83
2021/10/16 01:11:05;;;;;;;11.50;3.70;;;7.60;99.90;;;;;;5057854;28;20432;-83
2021/10/16 01:13:31;;;;;;;9.87;3.27;;;7.60;99.90;;;;;;5058566;28;20032;-84
2021/10/16 01:15:58;;;;;;;10.33;3.00;;;7.60;99.90;;;;;;5058514;28;20397;-83
2021/10/16 01:18:24;;;;;;;11.27;3.70;;;7.60;99.90;;;;;;5058323;28;20037;-84
2021/10/16 01:21:16;;;;;;;17.50;3.87;;;7.60;99.90;;;;;;5057470;28;20052;-84
2021/10/16 01:23:42;;;;;;;11.20;3.23;;;7.60;99.90;;;;;;5054304;28;20029;-83
2021/10/16 01:26:08;;;;;;;11.63;3.17;;;7.60;99.90;;;;;;5057147;28;20037;-83
2021/10/16 01:28:34;;;;;;;12.60;3.50;;;7.60;99.90;;;;;;5057426;28;20024;-83
2021/10/16 01:31:00;;;;;;;16.37;3.50;;;7.60;99.90;;;;;;5056303;28;20029;-83
2021/10/16 01:33:26;;;;;;;10.77;3.20;;;7.50;99.90;;;;;;5057380;28;20029;-83
2021/10/16 01:36:03;;;;;;;10.27;2.97;;;7.50;99.90;;;;;;5057378;28;20079;-84
2021/10/16 01:38:30;;;;;;;11.83;3.10;;;7.50;99.90;;;;;;5057674;28;20032;-83
2021/10/16 01:40:56;;;;;;;9.77;2.80;;;7.50;99.90;;;;;;5056736;28;20064;-83
2021/10/16 01:43:23;;;;;;;11.87;3.00;;;7.40;99.90;;;;;;5057302;28;20105;-84
2021/10/16 01:45:51;;;;;;;10.87;3.17;;;7.40;99.90;;;;;;5056095;28;20029;-83
2021/10/16 01:48:24;;;;;;;13.07;3.88;;;7.30;99.90;;;;;;5055997;28;20028;-84
2021/10/16 01:50:51;;;;;;;11.27;3.97;;;7.30;99.90;;;;;;5055725;28;20033;-83
2021/10/16 01:53:17;;;;;;;12.73;3.90;;;7.40;99.90;;;;;;5057174;28;20040;-83
2021/10/16 01:55:43;;;;;;;10.97;4.00;;;7.40;99.90;;;;;;5056436;28;20033;-84
2021/10/16 01:58:11;;;;;;;11.20;3.80;;;7.40;99.90;;;;;;5057867;28;20017;-83
2021/10/16 02:00:37;;;;;;;14.80;4.80;;;7.40;99.90;;;;;;5056271;28;20099;-83
2021/10/16 02:03:11;;;;;;;10.13;3.83;;;7.40;99.90;;;;;;5057927;28;20029;-84
2021/10/16 02:05:42;;;;;;;12.17;3.50;;;7.40;99.90;;;;;;5057890;28;20017;-84
2021/10/16 02:08:09;;;;;;;10.77;4.17;;;7.40;99.90;;;;;;5059424;28;20028;-84
2021/10/16 02:10:34;;;;;;;11.07;3.60;;;7.30;99.90;;;;;;5057262;28;20025;-84
2021/10/16 02:13:00;;;;;;;18.97;4.90;;;7.30;99.90;;;;;;5054856;28;20029;-83
2021/10/16 02:15:26;;;;;;;11.40;4.23;;;7.30;99.90;;;;;;5054136;28;20021;-83
2021/10/16 02:17:51;;;;;;;12.73;4.50;;;7.30;99.90;;;;;;5054949;28;20108;-83
2021/10/16 02:20:17;;;;;;;11.13;4.03;;;7.30;99.90;;;;;;5054194;28;20028;-83
2021/10/16 02:22:42;;;;;;;14.20;4.20;;;7.30;99.90;;;;;;5055036;28;20021;-83
2021/10/16 02:25:08;;;;;;;9.53;3.50;;;7.30;99.90;;;;;;5053330;28;20029;-83
2021/10/16 02:27:34;;;;;;;8.90;3.00;;;7.30;99.90;;;;;;5054348;28;20056;-83
2021/10/16 02:29:59;;;;;;;11.27;2.97;;;7.20;99.90;;;;;;5052241;28;20055;-82
2021/10/16 02:32:25;;;;;;;12.13;3.40;;;7.20;99.90;;;;;;5052843;28;20121;-83
2021/10/16 02:34:51;;;;;;;13.30;3.63;;;7.20;99.90;;;;;;5052879;28;20025;-83
2021/10/16 02:37:16;;;;;;;10.80;3.50;;;7.20;99.90;;;;;;5054261;28;20428;-83
2021/10/16 02:39:42;;;;;;;9.83;3.30;;;7.20;99.90;;;;;;5053472;28;20025;-83
2021/10/16 02:42:08;;;;;;;12.37;4.07;;;7.20;99.90;;;;;;5053885;28;20017;-83
2021/10/16 02:44:34;;;;;;;9.47;3.23;;;7.20;99.90;;;;;;5052722;28;20115;-82
2021/10/16 02:47:00;;;;;;;10.20;3.33;;;7.10;99.90;;;;;;5052490;28;20021;-83
2021/10/16 02:49:26;;;;;;;13.07;3.40;;;7.10;99.90;;;;;;5053084;28;20477;-83
2021/10/16 02:51:51;;;;;;;10.00;3.20;;;7.00;99.90;;;;;;5053669;28;20485;-82
2021/10/16 02:54:17;;;;;;;15.77;4.10;;;7.10;99.90;;;;;;5053629;28;20485;-83
2021/10/16 02:56:43;;;;;;;9.40;3.43;;;7.10;99.90;;;;;;5053143;28;20307;-83
2021/10/16 02:59:08;;;;;;;13.87;3.67;;;7.10;99.90;;;;;;5050410;28;20508;-82
2021/10/16 03:01:34;;;;;;;12.07;3.13;;;7.10;99.90;;;;;;5052385;28;20028;-83
2021/10/16 03:03:59;;;;;;;12.57;3.50;;;7.10;99.90;;;;;;5053492;28;20535;-83
2021/10/16 03:06:25;;;;;;;10.57;3.57;;;7.10;99.90;;;;;;5054025;28;20025;-83
2021/10/16 03:08:51;;;;;;;12.07;3.40;;;7.10;99.90;;;;;;5052947;28;20079;-83
2021/10/16 03:11:16;;;;;;;11.63;3.60;;;7.00;99.90;;;;;;5051785;28;20021;-83
2021/10/16 03:13:42;;;;;;;11.97;3.60;;;7.10;99.90;;;;;;5051956;28;20047;-83
2021/10/16 03:16:08;;;;;;;12.03;3.50;;;7.00;99.90;;;;;;5053557;28;20096;-83
2021/10/16 03:18:34;;;;;;;11.17;3.50;;;7.00;99.90;;;;;;5052183;28;20017;-83
2021/10/16 03:21:00;;;;;;;12.83;3.40;;;7.00;99.90;;;;;;5052959;28;20025;-82
2021/10/16 03:23:26;;;;;;;10.77;3.23;;;7.00;99.90;;;;;;5051434;28;20377;-83
2021/10/16 03:25:51;;;;;;;10.53;3.27;;;7.00;99.90;;;;;;5051599;28;20017;-82
2021/10/16 03:28:17;;;;;;;12.00;3.67;;;7.00;99.90;;;;;;5051634;28;20496;-82
2021/10/16 03:30:43;;;;;;;10.53;3.50;;;6.90;99.90;;;;;;5052290;28;20033;-82
2021/10/16 03:33:08;;;;;;;12.07;3.63;;;6.90;99.90;;;;;;5052679;28;20370;-83
2021/10/16 03:35:35;;;;;;;11.57;3.80;;;6.90;99.90;;;;;;5051486;28;20040;-83
2021/10/16 03:38:00;;;;;;;8.90;3.40;;;7.00;99.90;;;;;;5052809;28;20017;-83
2021/10/16 03:40:26;;;;;;;12.13;3.63;;;6.90;99.90;;;;;;5051969;28;20029;-82
2021/10/16 03:42:52;;;;;;;9.70;3.77;;;6.90;99.90;;;;;;5051288;28;20237;-83
2021/10/16 03:45:18;;;;;;;11.70;3.97;;;6.80;99.90;;;;;;5051523;28;20021;-83
2021/10/16 03:47:43;;;;;;;16.37;3.83;;;6.80;99.90;;;;;;5052708;28;20061;-82
2021/10/16 03:50:09;;;;;;;14.53;4.60;;;6.80;99.90;;;;;;5052413;28;20021;-83
2021/10/16 03:52:35;;;;;;;12.40;3.57;;;6.80;99.90;;;;;;5051524;28;20024;-83
2021/10/16 03:55:01;;;;;;;9.93;3.43;;;6.80;99.90;;;;;;5052622;28;20378;-83
2021/10/16 03:57:26;;;;;;;11.87;4.30;;;6.80;99.90;;;;;;5052998;28;20033;-82
2021/10/16 03:59:52;;;;;;;13.53;4.00;;;6.80;99.90;;;;;;5051670;28;20509;-83
2021/10/16 04:02:19;;;;;;;12.13;3.73;;;6.80;99.90;;;;;;5051230;28;20025;-82
2021/10/16 04:04:45;;;;;;;10.00;3.90;;;6.90;99.90;;;;;;5052830;28;20028;-82
2021/10/16 04:07:11;;;;;;;15.13;3.80;;;6.80;99.90;;;;;;5052458;28;20021;-83
2021/10/16 04:09:36;;;;;;;9.67;3.70;;;6.80;99.90;;;;;;5050662;28;20040;-82
2021/10/16 04:12:02;;;;;;;11.43;4.33;;;6.80;99.90;;;;;;5052766;28;20029;-83
2021/10/16 04:14:28;;;;;;;11.13;3.40;;;6.80;99.90;;;;;;5052586;28;20025;-82
2021/10/16 04:16:54;;;;;;;12.50;3.60;;;6.70;99.90;;;;;;5052495;28;20025;-83
2021/10/16 04:19:19;;;;;;;11.47;3.47;;;6.70;99.90;;;;;;5050695;28;20021;-83
2021/10/16 04:21:45;;;;;;;14.93;3.90;;;6.70;99.90;;;;;;5052510;28;20373;-83
2021/10/16 04:24:10;;;;;;;15.03;4.57;;;6.60;99.90;;;;;;5052414;28;20039;-83
2021/10/16 04:26:36;;;;;;;9.77;3.70;;;6.70;99.90;;;;;;5052659;28;20075;-83
2021/10/16 04:29:03;;;;;;;14.87;3.93;;;6.60;99.90;;;;;;5052369;28;20158;-83
2021/10/16 04:31:28;;;;;;;13.87;4.10;;;6.60;99.90;;;;;;5052233;28;20108;-82
2021/10/16 04:33:54;;;;;;;13.10;3.80;;;6.60;99.90;;;;;;5051379;28;20116;-83
2021/10/16 04:36:19;;;;;;;16.67;4.67;;;6.60;99.90;;;;;;5054437;28;20078;-82
2021/10/16 04:38:47;;;;;;;14.87;4.63;;;6.60;99.90;;;;;;5056558;28;20442;-82
2021/10/16 04:41:14;;;;;;;15.50;4.73;;;6.60;99.90;;;;;;5056190;28;20500;-83
2021/10/16 04:43:41;;;;;;;9.07;3.90;;;6.50;99.90;;;;;;5055040;28;20474;-82
2021/10/16 04:46:11;;;;;;;13.57;4.23;;;6.60;99.90;;;;;;5056771;28;20053;-82
2021/10/16 04:48:42;;;;;;;18.57;4.30;;;6.50;99.90;;;;;;5055261;28;20139;-82
2021/10/16 04:51:08;;;;;;;13.73;3.80;;;6.60;99.90;;;;;;5056209;28;20104;-83
2021/10/16 04:53:33;;;;;;;11.13;3.70;;;6.60;99.90;;;;;;5056794;28;20055;-82
2021/10/16 04:55:59;;;;;;;11.00;3.60;;;6.60;99.90;;;;;;5056544;28;20047;-83
2021/10/16 04:58:25;;;;;;;15.30;4.10;;;6.60;99.90;;;;;;5055203;28;20029;-83
2021/10/16 05:00:50;;;;;;;12.10;4.07;;;6.60;99.90;;;;;;5055743;28;20067;-83
2021/10/16 05:03:16;;;;;;;14.13;4.07;;;6.60;99.90;;;;;;5056413;28;20052;-84
2021/10/16 05:05:41;;;;;;;10.83;3.40;;;6.60;99.90;;;;;;5056526;28;20485;-83
2021/10/16 05:08:07;;;;;;;14.50;4.67;;;6.60;99.90;;;;;;5054968;28;20037;-83
2021/10/16 05:10:34;;;;;;;9.30;4.00;;;6.50;99.90;;;;;;5055859;28;20033;-82
2021/10/16 05:13:00;;;;;;;9.63;3.90;;;6.50;99.90;;;;;;5055039;28;20033;-84
2021/10/16 05:15:25;;;;;;;11.93;3.50;;;6.50;99.90;;;;;;5056358;28;20465;-83
2021/10/16 05:17:51;;;;;;;11.53;3.80;;;6.50;99.90;;;;;;5056506;28;20025;-83
2021/10/16 05:20:17;;;;;;;10.87;3.67;;;6.40;99.90;;;;;;5055297;28;20032;-82
2021/10/16 05:22:42;;;;;;;10.27;4.00;;;6.40;99.90;;;;;;5055959;28;20103;-83
2021/10/16 05:25:10;;;;;;;13.17;3.43;;;6.40;99.90;;;;;;5054267;28;20108;-83
2021/10/16 05:27:37;;;;;;;12.80;4.07;;;6.40;99.90;;;;;;5054602;28;20036;-83
2021/10/16 05:30:02;;;;;;;13.67;3.77;;;6.40;99.90;;;;;;5055411;28;20036;-83
2021/10/16 05:32:28;;;;;;;12.87;4.23;;;6.40;99.90;;;;;;5056377;28;20037;-83
2021/10/16 05:34:54;;;;;;;9.27;3.20;;;6.50;99.90;;;;;;5055774;28;20145;-84
2021/10/16 05:37:19;;;;;;;13.63;4.50;;;6.50;99.90;;;;;;5056154;28;20485;-82
2021/10/16 05:39:45;;;;;;;11.83;3.60;;;6.50;99.90;;;;;;5054436;28;20154;-83
2021/10/16 05:42:11;;;;;;;13.03;3.63;;;6.50;99.90;;;;;;5053887;28;20025;-83
2021/10/16 05:44:36;;;;;;;9.77;3.50;;;6.50;99.90;;;;;;5053952;28;20118;-83
2021/10/16 05:47:02;;;;;;;11.97;3.80;;;6.50;99.90;;;;;;5054576;28;20110;-83
2021/10/16 05:49:28;;;;;;;12.03;4.20;;;6.50;99.90;;;;;;5053680;28;20033;-83
2021/10/16 05:51:53;;;;;;;11.07;3.57;;;6.50;99.90;;;;;;5054547;28;20036;-83
2021/10/16 05:54:19;;;;;;;12.20;3.80;;;6.50;99.90;;;;;;5054566;28;20036;-83
2021/10/16 05:56:45;;;;;;;15.53;3.70;;;6.60;99.90;;;;;;5056039;28;20028;-83
2021/10/16 05:59:10;;;;;;;12.10;3.87;;;6.70;99.90;;;;;;5055251;28;20454;-82
2021/10/16 06:01:36;;;;;;;15.40;4.67;;;6.70;99.90;;;;;;5055422;28;20117;-83
2021/10/16 06:04:02;;;;;;;12.40;4.00;;;6.80;99.90;;;;;;5054014;28;20040;-83
2021/10/16 06:06:27;;;;;;;12.10;3.60;;;6.80;99.90;;;;;;5054712;28;20033;-82
2021/10/16 06:08:53;;;;;;;13.63;4.27;;;6.80;99.90;;;;;;5054118;28;20112;-83
2021/10/16 06:11:18;;;;;;;10.40;4.10;;;6.80;99.90;;;;;;5056791;28;20436;-83
2021/10/16 06:13:44;;;;;;;11.63;3.90;;;6.90;99.90;;;;;;5056587;28;20028;-83
2021/10/16 06:16:10;;;;;;;20.87;5.30;;;6.90;99.90;;;;;;5055588;28;20032;-83
2021/10/16 06:18:35;;;;;;;9.70;3.90;;;6.90;99.90;;;;;;5056345;28;20517;-83
2021/10/16 06:21:03;;;;;;;14.40;4.57;;;6.90;99.90;;;;;;5055632;28;20082;-83
2021/10/16 06:23:29;;;;;;;10.33;4.90;;;7.00;99.90;;;;;;5055226;28;20021;-84
2021/10/16 06:25:55;;;;;;;11.20;4.57;;;6.90;99.90;;;;;;5056869;28;20043;-84
2021/10/16 06:28:21;;;;;;;18.53;5.37;;;6.90;99.90;;;;;;5056736;28;20025;-83
2021/10/16 06:30:46;;;;;;;12.30;4.50;;;7.00;99.90;;;;;;5056538;28;20029;-83
2021/10/16 06:33:12;;;;;;;13.73;5.60;;;7.00;99.90;;;;;;5055103;28;20029;-83
2021/10/16 06:35:39;;;;;;;11.10;4.90;;;7.00;99.90;;;;;;5056779;28;20025;-83
2021/10/16 06:38:05;;;;;;;12.07;5.10;;;7.00;99.90;;;;;;5056475;28;20029;-83
2021/10/16 06:40:31;;;;;;;11.97;6.07;;;7.00;99.90;;;;;;5054378;28;20083;-83
2021/10/16 06:42:56;;;;;;;12.67;5.37;;;7.00;99.90;;;;;;5056187;28;20466;-83
2021/10/16 06:45:22;;;;;;;17.63;6.70;;;7.10;99.90;;;;;;5055003;28;20047;-82
2021/10/16 06:47:48;;;;;;;15.37;6.50;;;7.00;99.90;;;;;;5053755;28;20025;-83
2021/10/16 06:50:14;;;;;;;15.67;5.93;;;7.10;99.90;;;;;;5055392;28;20067;-83
2021/10/16 06:52:40;;;;;;;16.17;6.03;;;7.20;99.90;;;;;;5056523;28;20429;-84
2021/10/16 06:55:06;;;;;;;15.97;6.23;;;7.20;99.90;;;;;;5056428;28;20043;-84
2021/10/16 06:57:32;;;;;;;12.27;4.93;;;7.20;99.90;;;;;;5056507;28;20030;-85
2021/10/16 06:59:57;;;;;;;11.40;4.70;;;7.30;99.90;;;;;;5052676;28;20029;-83
2021/10/16 07:02:23;;;;;;;16.40;5.20;;;7.40;99.90;;;;;;5055021;28;20532;-83
2021/10/16 07:04:48;;;;;;;17.87;5.50;;;7.40;99.90;;;;;;5052401;28;20025;-83
2021/10/16 07:07:14;;;;;;;16.23;4.73;;;7.50;99.90;;;;;;5053319;28;20024;-83
2021/10/16 07:09:40;;;;;;;14.53;4.40;;;7.50;99.90;;;;;;5051429;28;20548;-83
2021/10/16 07:12:08;;;;;;;11.80;4.23;;;7.50;99.90;;;;;;5052031;28;20443;-83
2021/10/16 07:14:35;;;;;;;12.27;4.32;;;7.60;99.90;;;;;;5054287;28;20461;-83
2021/10/16 07:17:00;;;;;;;14.47;4.43;;;7.70;99.90;;;;;;5054749;28;20025;-83
2021/10/16 07:19:26;;;;;;;13.70;4.67;;;7.70;99.90;;;;;;5053809;28;20386;-83
2021/10/16 07:21:51;;;;;;;15.60;4.57;;;7.70;99.90;;;;;;5053778;28;20028;-84
2021/10/16 07:24:17;;;;;;;17.13;4.73;;;7.70;99.90;;;;;;5055578;28;20025;-84
2021/10/16 07:26:44;;;;;;;15.50;4.60;;;7.70;99.90;;;;;;5054243;28;20064;-83
2021/10/16 07:29:10;;;;;;;22.90;8.47;;;7.80;99.90;;;;;;5054993;28;20075;-82
2021/10/16 07:31:36;;;;;;;33.20;14.73;;;7.70;99.90;;;;;;5055076;28;20025;-83
2021/10/16 07:34:03;;;;;;;49.43;23.60;;;7.80;99.90;;;;;;5054798;28;20128;-84
2021/10/16 07:36:34;;;;;;;61.07;28.77;;;7.80;99.90;;;;;;5056510;28;20029;-83
2021/10/16 07:39:06;;;;;;;49.77;23.17;;;7.80;99.90;;;;;;5054148;28;20032;-83
2021/10/16 07:41:32;;;;;;;39.37;18.17;;;7.80;99.90;;;;;;5054393;28;20029;-83
2021/10/16 07:43:58;;;;;;;42.40;19.17;;;7.90;99.90;;;;;;5052820;28;20028;-84
2021/10/16 07:46:23;;;;;;;35.87;18.80;;;7.90;99.90;;;;;;5053042;28;20100;-83
2021/10/16 07:48:49;;;;;;;32.03;15.53;;;7.90;99.90;;;;;;5052859;28;20060;-83
2021/10/16 07:51:15;;;;;;;27.47;14.20;;;8.00;99.90;;;;;;5054044;28;20048;-82
2021/10/16 07:53:41;;;;;;;37.00;17.77;;;8.00;99.90;;;;;;5052960;28;20393;-84
2021/10/16 07:56:07;;;;;;;28.47;14.77;;;8.00;99.90;;;;;;5054552;28;20021;-83
2021/10/16 07:58:32;;;;;;;22.93;12.17;;;8.10;99.90;;;;;;5052694;28;20040;-83
2021/10/16 08:00:58;;;;;;;23.37;11.73;;;8.10;99.90;;;;;;5053951;28;20436;-83
2021/10/16 08:03:24;;;;;;;24.00;13.27;;;8.10;99.90;;;;;;5053778;28;20200;-84
2021/10/16 08:05:50;;;;;;;27.53;14.37;;;8.20;99.90;;;;;;5053007;28;20394;-83
2021/10/16 08:08:15;;;;;;;21.17;9.40;;;8.20;99.90;;;;;;5053629;28;20028;-83
2021/10/16 08:10:42;;;;;;;17.30;7.57;;;8.30;99.90;;;;;;5052996;28;20029;-84
2021/10/16 08:13:08;;;;;;;15.73;5.93;;;8.30;99.90;;;;;;5054344;28;20032;-83
2021/10/16 08:15:34;;;;;;;14.47;5.40;;;8.40;99.90;;;;;;5052881;28;20029;-83
2021/10/16 08:18:01;;;;;;;14.67;5.80;;;8.40;99.90;;;;;;5054485;28;20022;-84
2021/10/16 08:20:27;;;;;;;19.33;6.10;;;8.40;99.90;;;;;;5053623;28;20031;-83
2021/10/16 08:22:55;;;;;;;17.07;6.00;;;8.40;99.90;;;;;;5055232;28;20032;-84
2021/10/16 08:25:21;;;;;;;16.73;5.27;;;8.50;99.90;;;;;;5054258;28;20017;-83
2021/10/16 08:27:47;;;;;;;21.10;6.17;;;8.50;99.90;;;;;;5054731;28;20270;-84
2021/10/16 08:30:15;;;;;;;17.13;5.53;;;8.50;99.90;;;;;;5053373;28;20036;-83
2021/10/16 08:32:41;;;;;;;18.10;6.37;;;8.60;99.90;;;;;;5054322;28;20037;-84
2021/10/16 08:35:08;;;;;;;15.63;5.60;;;8.60;99.90;;;;;;5054383;28;20033;-83
2021/10/16 08:37:34;;;;;;;17.97;5.77;;;8.70;99.90;;;;;;5054791;28;20052;-83
2021/10/16 08:40:00;;;;;;;15.13;6.13;;;8.70;99.90;;;;;;5052075;28;20060;-84
2021/10/16 08:42:26;;;;;;;13.57;4.87;;;8.70;99.90;;;;;;5052418;28;20451;-82
2021/10/16 08:44:57;;;;;;;14.07;5.10;;;8.80;99.90;;;;;;5054640;28;20066;-84
2021/10/16 08:47:24;;;;;;;19.20;5.60;;;8.80;99.90;;;;;;5052945;28;20036;-83
2021/10/16 08:49:52;;;;;;;18.57;6.47;;;8.80;99.90;;;;;;5053331;28;20417;-83
2021/10/16 08:52:17;;;;;;;19.47;6.50;;;8.90;99.90;;;;;;5054037;28;20036;-84
2021/10/16 08:54:43;;;;;;;17.73;5.57;;;8.90;99.90;;;;;;5053863;28;20049;-84
2021/10/16 08:57:09;;;;;;;17.23;5.87;;;9.00;99.90;;;;;;5052111;28;20417;-84
2021/10/16 08:59:35;;;;;;;15.77;5.40;;;9.00;99.90;;;;;;5052900;28;20075;-83
2021/10/16 09:02:04;;;;;;;20.57;5.37;;;9.00;99.90;;;;;;5052191;28;20474;-83
2021/10/16 09:04:31;;;;;;;20.70;6.40;;;9.00;99.90;;;;;;5053572;28;20021;-84
2021/10/16 09:06:57;;;;;;;17.77;6.30;;;9.10;99.90;;;;;;5053092;28;20017;-83
2021/10/16 09:09:25;;;;;;;17.80;6.10;;;9.10;99.90;;;;;;5052864;28;20033;-83
2021/10/16 09:11:54;;;;;;;15.23;5.70;;;9.20;99.90;;;;;;5053268;28;20021;-84
2021/10/16 09:14:21;;;;;;;17.20;5.35;;;9.20;99.90;;;;;;5051957;28;20032;-83
2021/10/16 09:16:59;;;;;;;13.03;4.97;;;9.30;99.90;;;;;;5053349;28;20025;-83
2021/10/16 09:19:38;;;;;;;16.95;5.65;;;9.40;99.90;;;;;;5052742;28;20120;-84
2021/10/16 09:22:13;;;;;;;16.27;5.63;;;9.50;99.90;;;;;;5054271;28;20029;-83
2021/10/16 09:24:45;;;;;;;13.77;5.07;;;9.50;99.90;;;;;;5057265;28;20021;-84
2021/10/16 09:27:18;;;;;;;33.53;7.17;;;9.50;99.90;;;;;;5057168;28;20040;-83
2021/10/16 09:29:47;;;;;;;19.90;5.77;;;9.60;99.90;;;;;;5056740;28;20066;-83
2021/10/16 09:32:18;;;;;;;18.13;5.23;;;9.70;99.90;;;;;;5055193;28;20120;-83
2021/10/16 09:34:46;;;;;;;16.67;5.80;;;9.70;99.90;;;;;;5056540;28;20033;-83
2021/10/16 09:37:19;;;;;;;17.70;6.27;;;9.80;99.90;;;;;;5056512;28;20025;-83
2021/10/16 09:39:48;;;;;;;16.80;6.03;;;9.80;99.90;;;;;;5054395;28;20564;-83
2021/10/16 09:42:36;;;;;;;15.75;6.22;;;9.90;99.90;;;;;;5056477;28;20477;-83
2021/10/16 09:45:07;;;;;;;13.35;5.70;;;9.90;99.90;;;;;;5056788;28;20035;-83
2021/10/16 09:47:33;;;;;;;14.87;5.43;;;10.00;99.90;;;;;;5056391;28;20107;-83
2021/10/16 09:50:15;;;;;;;17.43;5.43;;;10.00;99.90;;;;;;5055697;28;20108;-83
2021/10/16 09:52:43;;;;;;;17.80;5.70;;;10.10;99.90;;;;;;5055009;28;20032;-83
2021/10/16 09:55:10;;;;;;;14.87;5.80;;;10.10;99.90;;;;;;5056266;28;20118;-83
2021/10/16 09:57:37;;;;;;;16.93;6.30;;;10.20;99.90;;;;;;5056408;28;20486;-83
2021/10/16 10:00:05;;;;;;;14.87;5.77;;;10.20;99.90;;;;;;5056135;28;20378;-83
2021/10/16 10:02:32;;;;;;;15.10;6.27;;;10.30;99.90;;;;;;5055912;28;20021;-83
2021/10/16 10:04:58;;;;;;;12.87;5.97;;;10.30;99.90;;;;;;5056302;28;20021;-83
2021/10/16 10:07:25;;;;;;;14.10;5.77;;;10.30;99.90;;;;;;5056280;28;20029;-83
2021/10/16 10:09:52;;;;;;;16.03;6.60;;;10.40;99.90;;;;;;5054003;28;20430;-83
2021/10/16 10:12:18;;;;;;;16.03;6.00;;;10.40;99.90;;;;;;5054124;28;20059;-84
2021/10/16 10:14:47;;;;;;;16.73;6.23;;;10.40;99.90;;;;;;5055164;28;20075;-83
2021/10/16 10:17:17;;;;;;;18.20;6.13;;;10.50;99.90;;;;;;5054499;28;20028;-84
2021/10/16 10:19:49;;;;;;;18.20;6.17;;;10.50;99.90;;;;;;5054049;28;20149;-83
2021/10/16 10:22:17;;;;;;;16.87;6.53;;;10.60;99.90;;;;;;5055984;28;20028;-83
2021/10/16 10:24:49;;;;;;;14.50;5.50;;;10.60;99.90;;;;;;5054391;28;20029;-83
2021/10/16 10:27:18;;;;;;;15.40;5.53;;;10.60;99.90;;;;;;5054285;28;20390;-83
2021/10/16 10:29:47;;;;;;;15.65;6.22;;;10.70;99.90;;;;;;5053490;28;20397;-84
2021/10/16 10:32:20;;;;;;;15.98;6.32;;;10.80;99.90;;;;;;5055918;28;20043;-84
2021/10/16 10:34:59;;;;;;;17.63;5.53;;;10.80;99.90;;;;;;5053979;28;20033;-83
2021/10/16 10:37:30;;;;;;;12.95;6.30;;;10.80;99.90;;;;;;5055912;28;20087;-83
2021/10/16 10:39:58;;;;;;;14.87;5.37;;;10.80;99.90;;;;;;5054967;28;20032;-83
2021/10/16 10:42:23;;;;;;;15.07;5.30;;;11.00;99.90;;;;;;5055521;28;20081;-83
2021/10/16 10:44:55;;;;;;;11.17;4.50;;;11.00;99.90;;;;;;5055392;28;20044;-83
2021/10/16 10:47:36;;;;;;;16.77;5.43;;;11.00;99.90;;;;;;5055327;28;20028;-84
2021/10/16 10:50:08;;;;;;;13.17;4.67;;;11.10;99.90;;;;;;5054931;28;20032;-83
2021/10/16 10:53:05;;;;;;;13.63;4.57;;;11.10;99.90;;;;;;5055607;28;20029;-83
2021/10/16 10:55:51;;;;;;;17.37;5.40;;;11.10;99.90;;;;;;5054081;28;20017;-83
2021/10/16 10:58:18;;;;;;;12.97;5.27;;;11.10;99.90;;;;;;5054257;28;20508;-84
2021/10/16 11:00:43;;;;;;;23.30;7.57;;;11.20;99.90;;;;;;5053447;28;20020;-83
2021/10/16 11:03:27;;;;;;;18.17;7.43;;;11.20;99.90;;;;;;5054396;28;20078;-82
2021/10/16 11:06:09;;;;;;;15.03;6.27;;;11.20;99.90;;;;;;5053759;28;20036;-83
2021/10/16 11:08:36;;;;;;;25.30;9.80;;;11.20;99.90;;;;;;5054984;28;20033;-83
2021/10/16 11:11:02;;;;;;;25.03;10.73;;;11.30;99.90;;;;;;5054688;28;20021;-83
2021/10/16 11:13:31;;;;;;;28.93;12.47;;;11.30;99.90;;;;;;5055110;28;20025;-83
2021/10/16 11:15:59;;;;;;;27.97;11.73;;;11.40;99.90;;;;;;5055492;28;20044;-83
2021/10/16 11:18:25;;;;;;;27.23;10.83;;;11.40;99.90;;;;;;5053567;28;20052;-83
2021/10/16 11:20:51;;;;;;;31.60;12.07;;;11.50;99.90;;;;;;5054683;28;20035;-84
2021/10/16 11:23:21;;;;;;;27.70;10.17;;;11.50;99.90;;;;;;5053542;28;20108;-84
2021/10/16 11:25:59;;;;;;;26.30;10.60;;;11.50;99.90;;;;;;5055211;28;20086;-83
2021/10/16 11:28:25;;;;;;;27.10;11.10;;;11.50;99.90;;;;;;5055355;28;20021;-83
2021/10/16 11:30:56;;;;;;;29.10;12.03;;;11.50;99.90;;;;;;5053112;28;20071;-83
2021/10/16 11:33:30;;;;;;;26.73;9.93;;;11.60;99.90;;;;;;5053779;28;20025;-84
2021/10/16 11:35:59;;;;;;;24.10;8.87;;;11.60;99.90;;;;;;5055262;28;20050;-83
2021/10/16 11:38:28;;;;;;;32.50;10.75;;;11.60;99.90;;;;;;5056006;28;20370;-83
2021/10/16 11:40:55;;;;;;;29.58;10.50;;;11.50;99.90;;;;;;5054687;28;20037;-84
2021/10/16 11:43:23;;;;;;;19.93;9.27;;;11.50;99.90;;;;;;5053491;28;20025;-83
2021/10/16 11:45:50;;;;;;;24.30;8.20;;;11.40;99.90;;;;;;5053058;28;20021;-84
2021/10/16 11:48:18;;;;;;;28.63;8.97;;;11.40;99.90;;;;;;5055548;28;20021;-83
2021/10/16 11:50:52;;;;;;;19.93;7.33;;;11.40;99.90;;;;;;5053022;28;20033;-83
2021/10/16 11:53:22;;;;;;;21.93;6.70;;;11.40;99.90;;;;;;5055263;28;20040;-84
2021/10/16 11:55:53;;;;;;;21.20;6.70;;;11.30;99.90;;;;;;5055138;28;20107;-84
2021/10/16 11:58:21;;;;;;;15.50;5.67;;;11.30;99.90;;;;;;5053602;28;20036;-83
2021/10/16 12:00:55;;;;;;;14.93;5.30;;;11.30;99.90;;;;;;5054231;28;20068;-83
2021/10/16 12:03:30;;;;;;;19.97;5.73;;;11.20;99.90;;;;;;5054267;28;20053;-83
2021/10/16 12:05:57;;;;;;;26.30;9.17;;;11.20;99.90;;;;;;5052673;28;20017;-82
2021/10/16 12:08:28;;;;;;;26.37;8.90;;;11.20;99.90;;;;;;5077186;23;20141;-82
2021/10/16 12:10:56;;;;;;;25.93;9.00;;;11.20;99.90;;;;;;5065799;28;20057;-82
2021/10/16 12:13:31;;;;;;;22.03;8.30;;;11.20;99.90;;;;;;5065604;28;20035;-82
2021/10/16 12:15:57;;;;;;;22.30;7.80;;;11.20;99.90;;;;;;5066167;28;20028;-82
2021/10/16 12:18:29;;;;;;;23.20;7.80;;;11.20;99.90;;;;;;5066674;28;20009;-82
2021/10/16 12:21:00;;;;;;;19.87;7.43;;;11.20;99.90;;;;;;5065143;28;20092;-81
2021/10/16 12:23:46;;;;;;;17.40;6.83;;;11.10;99.90;;;;;;5066758;28;20112;-82
2021/10/16 12:26:33;;;;;;;20.23;6.77;;;11.10;99.90;;;;;;5066372;28;20028;-82
2021/10/16 12:29:02;;;;;;;17.33;6.47;;;11.10;99.90;;;;;;5066681;28;20461;-82
2021/10/16 12:31:29;;;;;;;18.33;6.80;;;11.00;99.90;;;;;;5068313;28;20432;-82
2021/10/16 12:33:55;;;;;;;17.03;6.27;;;11.10;99.90;;;;;;5067393;28;20480;-81
2021/10/16 12:36:33;;;;;;;16.63;5.50;;;11.10;99.90;;;;;;5068154;28;20085;-82
2021/10/16 12:39:00;;;;;;;15.77;5.57;;;11.10;99.90;;;;;;5068529;28;20025;-82
2021/10/16 12:41:33;;;;;;;13.30;4.53;;;11.10;99.70;;;;;;5068819;28;20029;-81
2021/10/16 12:44:15;;;;;;;13.10;4.20;;;11.10;99.40;;;;;;5069506;28;20084;-82
2021/10/16 12:46:41;;;;;;;12.57;4.93;;;11.10;99.40;;;;;;5069485;28;20037;-82
2021/10/16 12:49:07;;;;;;;11.47;3.20;;;11.10;98.90;;;;;;5069362;28;20606;-82